createdAt,value
2019-01-12T00:00:50.948Z,-0.72
2019-01-12T00:03:41.021Z,-0.74
2019-01-12T00:06:31.173Z,-0.71
2019-01-12T00:09:21.248Z,-0.76
2019-01-12T00:12:10.788Z,-0.80
2019-01-12T00:15:01.591Z,-0.70
2019-01-12T00:17:51.328Z,-0.73
2019-01-12T00:20:41.145Z,-0.69
2019-01-12T00:23:30.912Z,-0.69
2019-01-12T00:26:20.628Z,-0.75
2019-01-12T00:29:10.136Z,-0.61
2019-01-12T00:31:59.689Z,-0.57
2019-01-12T00:34:49.646Z,-0.64
2019-01-12T00:37:39.431Z,-0.59
2019-01-12T00:40:29.345Z,-0.59
2019-01-12T00:43:19.144Z,-0.55
2019-01-12T00:46:09.362Z,-0.56
2019-01-12T00:48:59.386Z,-0.58
2019-01-12T00:51:48.985Z,-0.50
2019-01-12T00:54:38.906Z,-0.58
2019-01-12T00:57:29.844Z,-0.51
2019-01-12T01:00:42.150Z,-0.55
2019-01-12T01:03:32.315Z,-0.54
2019-01-12T01:06:23.096Z,-0.60
2019-01-12T01:09:32.295Z,-0.52
2019-01-12T01:12:22.007Z,-0.52
2019-01-12T01:15:30.761Z,-0.43
2019-01-12T01:18:20.549Z,-0.43
2019-01-12T01:21:10.936Z,-0.28
2019-01-12T01:24:00.779Z,-0.31
2019-01-12T01:27:09.472Z,-0.35
2019-01-12T01:29:58.928Z,-0.35
2019-01-12T01:32:48.972Z,-0.37
2019-01-12T01:35:38.560Z,-0.29
2019-01-12T01:38:47.255Z,-0.24
2019-01-12T01:41:36.793Z,-0.24
2019-01-12T01:44:26.820Z,-0.27
2019-01-12T01:47:17.021Z,-0.27
2019-01-12T01:50:07.669Z,-0.37
2019-01-12T01:52:57.270Z,-0.23
2019-01-12T01:55:46.987Z,-0.22
2019-01-12T01:58:36.688Z,-0.21
2019-01-12T02:01:26.780Z,-0.22
2019-01-12T02:04:16.825Z,-0.17
2019-01-12T02:07:06.855Z,-0.19
2019-01-12T02:10:34.659Z,-0.16
2019-01-12T02:13:24.742Z,-0.16
2019-01-12T02:16:14.522Z,-0.16
2019-01-12T02:19:04.143Z,0.02
2019-01-12T02:21:54.139Z,0.02
2019-01-12T02:24:43.602Z,-0.05
2019-01-12T02:27:52.276Z,0.06
2019-01-12T02:30:43.238Z,0.06
2019-01-12T02:33:44.894Z,0.03
2019-01-12T02:36:35.296Z,0.03
2019-01-12T02:39:25.350Z,0.05
2019-01-12T02:42:15.935Z,0.03
2019-01-12T02:45:45.662Z,0.03
2019-01-12T02:48:56.296Z,0.12
2019-01-12T02:51:45.875Z,0.12
2019-01-12T02:54:35.336Z,0.08
2019-01-12T02:57:24.866Z,0.08
2019-01-12T03:00:17.114Z,0.15
2019-01-12T03:03:07.215Z,0.17
2019-01-12T03:05:56.741Z,0.18
2019-01-12T03:08:46.442Z,0.17
2019-01-12T03:11:36.326Z,0.16
2019-01-12T03:14:26.225Z,0.16
2019-01-12T03:17:35.266Z,0.23
2019-01-12T03:20:44.005Z,0.22
2019-01-12T03:23:34.725Z,0.27
2019-01-12T03:26:26.091Z,0.27
2019-01-12T03:29:29.532Z,0.23
2019-01-12T03:32:30.767Z,0.24
2019-01-12T03:35:20.845Z,0.25
2019-01-12T03:38:29.954Z,0.32
2019-01-12T03:41:20.161Z,0.32
2019-01-12T03:44:10.103Z,0.35
2019-01-12T03:46:59.557Z,0.35
2019-01-12T03:53:25.376Z,0.43
2019-01-12T03:56:15.277Z,0.44
2019-01-12T03:59:05.041Z,0.36
2019-01-12T04:02:14.123Z,0.54
2019-01-12T04:05:04.041Z,0.51
2019-01-12T04:08:12.815Z,0.55
2019-01-12T04:11:02.551Z,0.55
2019-01-12T04:13:52.191Z,0.51
2019-01-12T04:16:42.003Z,0.51
2019-01-12T04:19:32.303Z,0.51
2019-01-12T04:22:22.332Z,0.59
2019-01-12T04:25:12.175Z,0.54
2019-01-12T04:28:01.737Z,0.59
2019-01-12T04:30:51.816Z,0.54
2019-01-12T04:33:41.564Z,0.54
2019-01-12T04:36:50.220Z,0.64
2019-01-12T04:39:40.420Z,0.59
2019-01-12T04:42:30.608Z,0.59
2019-01-12T04:45:39.270Z,0.75
2019-01-12T04:48:48.005Z,0.72
2019-01-12T04:51:37.522Z,0.73
2019-01-12T04:54:27.231Z,0.73
2019-01-12T04:57:35.960Z,0.70
2019-01-12T05:00:25.823Z,0.70
2019-01-12T05:03:34.738Z,0.79
2019-01-12T05:06:24.153Z,0.79
2019-01-12T05:09:14.160Z,0.79
2019-01-12T05:12:03.906Z,0.82
2019-01-12T05:14:54.074Z,0.84
2019-01-12T05:17:43.940Z,0.83
2019-01-12T05:20:33.775Z,0.83
2019-01-12T05:23:35.035Z,0.80
2019-01-12T05:26:36.217Z,0.86
2019-01-12T05:29:25.900Z,0.86
2019-01-12T05:32:34.813Z,0.77
2019-01-12T05:35:43.470Z,0.79
2019-01-12T05:38:33.259Z,0.79
2019-01-12T05:41:23.115Z,0.80
2019-01-12T05:44:13.100Z,0.84
2019-01-12T05:47:02.554Z,0.81
2019-01-12T05:49:52.000Z,0.81
2019-01-12T05:53:00.819Z,0.92
2019-01-12T05:55:57.039Z,0.92
2019-01-12T05:58:41.899Z,0.94
2019-01-12T06:01:50.904Z,0.99
2019-01-12T06:04:41.393Z,0.99
2019-01-12T06:07:50.220Z,0.80
2019-01-12T06:10:40.202Z,0.82
2019-01-12T06:13:29.989Z,0.82
2019-01-12T06:16:20.400Z,0.88
2019-01-12T06:19:10.361Z,0.89
2019-01-12T06:22:00.048Z,0.83
2019-01-12T06:25:08.791Z,0.86
2019-01-12T06:27:58.545Z,0.86
2019-01-12T06:30:49.074Z,0.87
2019-01-12T06:33:38.834Z,0.87
2019-01-12T06:36:28.489Z,0.92
2019-01-12T06:39:18.498Z,0.90
2019-01-12T06:42:08.484Z,0.87
2019-01-12T06:44:58.128Z,0.93
2019-01-12T06:47:48.635Z,0.87
2019-01-12T06:50:38.676Z,0.97
2019-01-12T06:53:28.367Z,1.01
2019-01-12T06:56:18.302Z,1.09
2019-01-12T06:59:08.234Z,1.09
2019-01-12T07:01:58.221Z,1.08
2019-01-12T07:04:48.260Z,1.08
2019-01-12T07:07:38.021Z,1.06
2019-01-12T07:10:45.577Z,1.11
2019-01-12T07:13:54.230Z,1.06
2019-01-12T07:16:44.022Z,1.06
2019-01-12T07:19:33.930Z,1.17
2019-01-12T07:22:23.727Z,1.16
2019-01-12T07:25:35.166Z,1.28
2019-01-12T07:28:44.470Z,1.26
2019-01-12T07:31:53.134Z,1.33
2019-01-12T07:34:43.446Z,1.33
2019-01-12T07:37:34.141Z,1.21
2019-01-12T07:40:24.635Z,1.30
2019-01-12T07:43:14.777Z,1.22
2019-01-12T07:46:05.022Z,1.18
2019-01-12T07:48:55.565Z,1.28
2019-01-12T07:51:45.514Z,1.43
2019-01-12T07:54:35.483Z,1.50
2019-01-12T07:57:24.937Z,1.41
2019-01-12T08:00:36.560Z,1.41
2019-01-12T08:03:26.157Z,1.43
2019-01-12T08:06:15.956Z,1.44
2019-01-12T08:09:08.551Z,1.44
2019-01-12T08:11:58.749Z,1.50
2019-01-12T08:14:49.136Z,1.44
2019-01-12T08:17:39.538Z,1.57
2019-01-12T08:20:29.935Z,1.57
2019-01-12T08:23:19.618Z,1.46
2019-01-12T08:26:31.345Z,1.54
2019-01-12T08:29:21.643Z,1.54
2019-01-12T08:32:30.341Z,1.55
2019-01-12T08:35:20.528Z,1.42
2019-01-12T08:38:11.535Z,1.42
2019-01-12T08:41:01.357Z,1.68
2019-01-12T08:43:51.897Z,1.69
2019-01-12T08:47:00.657Z,1.73
2019-01-12T08:49:50.114Z,1.73
2019-01-12T08:52:40.224Z,1.72
2019-01-12T08:55:29.999Z,1.64
2019-01-12T08:58:19.505Z,1.63
2019-01-12T09:01:09.106Z,1.56
2019-01-12T09:03:59.493Z,1.62
2019-01-12T09:06:49.241Z,1.65
2019-01-12T09:09:38.831Z,1.76
2019-01-12T09:12:28.347Z,1.78
2019-01-12T09:15:18.203Z,1.72
2019-01-12T09:18:08.042Z,1.72
2019-01-12T09:20:59.004Z,1.82
2019-01-12T09:23:49.406Z,1.86
2019-01-12T09:26:44.880Z,1.74
2019-01-12T09:29:31.505Z,1.77
2019-01-12T09:32:21.307Z,1.92
2019-01-12T09:35:30.232Z,1.92
2019-01-12T09:38:20.676Z,1.92
2019-01-12T09:41:10.197Z,1.90
2019-01-12T09:44:00.009Z,1.89
2019-01-12T09:46:49.432Z,1.94
2019-01-12T09:49:38.880Z,2.02
2019-01-12T09:52:28.876Z,2.08
2019-01-12T09:55:18.321Z,2.06
2019-01-12T09:58:08.271Z,2.09
2019-01-12T10:00:57.803Z,2.09
2019-01-12T10:03:47.825Z,2.14
2019-01-12T10:06:39.349Z,2.15
2019-01-12T10:09:28.850Z,2.36
2019-01-12T10:12:18.722Z,2.31
2019-01-12T10:15:08.937Z,2.27
2019-01-12T10:17:59.271Z,2.37
2019-01-12T10:20:49.175Z,2.18
2019-01-12T10:23:38.830Z,2.18
2019-01-12T10:26:29.155Z,2.32
2019-01-12T10:29:18.674Z,2.34
2019-01-12T10:32:08.563Z,2.31
2019-01-12T10:34:59.303Z,2.25
2019-01-12T10:37:49.381Z,2.30
2019-01-12T10:40:39.286Z,2.28
2019-01-12T10:43:28.950Z,2.18
2019-01-12T10:46:18.730Z,2.23
2019-01-12T10:49:08.507Z,2.23
2019-01-12T10:51:58.972Z,2.17
2019-01-12T10:54:49.154Z,2.20
2019-01-12T10:57:57.957Z,2.24
2019-01-12T11:00:47.800Z,2.24
2019-01-12T11:03:38.533Z,2.18
2019-01-12T11:06:29.643Z,2.19
2019-01-12T11:09:19.364Z,2.15
2019-01-12T11:12:08.893Z,2.22
2019-01-12T11:14:58.701Z,2.22
2019-01-12T11:18:27.884Z,2.37
2019-01-12T11:21:17.638Z,2.42
2019-01-12T11:24:07.635Z,2.43
2019-01-12T11:26:58.135Z,2.43
2019-01-12T11:29:48.228Z,2.59
2019-01-12T11:32:38.255Z,2.68
2019-01-12T11:35:28.025Z,2.69
2019-01-12T11:38:18.427Z,2.80
2019-01-12T11:41:10.023Z,2.81
2019-01-12T11:43:59.966Z,2.70
2019-01-12T11:46:50.270Z,2.83
2019-01-12T11:49:40.450Z,2.89
2019-01-12T11:52:30.383Z,2.84
2019-01-12T11:55:20.982Z,2.84
2019-01-12T11:58:09.691Z,2.78
2019-01-12T12:00:59.280Z,2.99
2019-01-12T12:03:49.146Z,3.01
2019-01-12T12:06:38.975Z,3.04
2019-01-12T12:09:28.978Z,3.07
2019-01-12T12:12:19.244Z,2.91
2019-01-12T12:15:10.400Z,2.78
2019-01-12T12:18:01.080Z,2.87
2019-01-12T12:20:51.186Z,2.95
2019-01-12T12:23:41.487Z,3.06
2019-01-12T12:26:32.051Z,3.28
2019-01-12T12:29:21.621Z,3.26
2019-01-12T12:32:11.515Z,3.31
2019-01-12T12:35:01.693Z,3.42
2019-01-12T12:37:52.655Z,3.32
2019-01-12T12:40:43.165Z,3.15
2019-01-12T12:43:33.028Z,3.25
2019-01-12T12:46:23.420Z,3.28
2019-01-12T12:49:12.145Z,3.26
2019-01-12T12:52:04.219Z,3.35
2019-01-12T12:54:53.873Z,3.35
2019-01-12T12:58:23.620Z,3.30
2019-01-12T13:01:13.467Z,3.36
2019-01-12T13:04:03.623Z,3.39
2019-01-12T13:06:53.518Z,3.34
2019-01-12T13:09:43.649Z,3.38
2019-01-12T13:12:33.927Z,3.28
2019-01-12T13:15:24.321Z,3.22
2019-01-12T13:18:14.864Z,3.10
2019-01-12T13:21:45.256Z,3.07
2019-01-12T13:24:34.942Z,3.11
2019-01-12T13:27:25.068Z,3.04
2019-01-12T13:30:35.062Z,3.02
2019-01-12T13:34:08.402Z,2.93
2019-01-12T13:36:58.463Z,2.89
2019-01-12T13:39:48.842Z,2.94
2019-01-12T13:42:43.937Z,2.99
2019-01-12T13:45:53.978Z,3.07
2019-01-12T13:48:44.081Z,3.05
2019-01-12T13:51:33.854Z,3.16
2019-01-12T13:54:33.570Z,3.23
2019-01-12T13:57:23.308Z,3.35
2019-01-12T14:00:34.311Z,3.31
2019-01-12T14:03:24.345Z,3.18
2019-01-12T14:06:14.344Z,3.11
2019-01-12T14:09:16.373Z,2.94
2019-01-12T14:12:05.989Z,2.96
2019-01-12T14:14:56.326Z,2.93
2019-01-12T14:17:49.557Z,2.85
2019-01-12T14:20:40.443Z,2.77
2019-01-12T14:23:30.080Z,2.70
2019-01-12T14:26:19.821Z,2.73
2019-01-12T14:29:09.370Z,2.69
2019-01-12T14:31:59.662Z,2.67
2019-01-12T14:34:49.477Z,2.71
2019-01-12T14:37:39.760Z,2.65
2019-01-12T14:40:30.010Z,2.68
2019-01-12T14:43:19.709Z,2.62
2019-01-12T14:46:09.697Z,2.64
2019-01-12T14:48:59.382Z,2.60
2019-01-12T14:51:49.379Z,2.56
2019-01-12T14:54:39.559Z,2.56
2019-01-12T14:57:29.542Z,2.62
2019-01-12T15:00:25.088Z,2.56
2019-01-12T15:03:15.920Z,2.51
2019-01-12T15:06:05.741Z,2.56
2019-01-12T15:08:55.749Z,2.54
2019-01-12T15:11:45.790Z,2.53
2019-01-12T15:14:36.195Z,2.51
2019-01-12T15:17:26.084Z,2.49
2019-01-12T15:20:35.332Z,2.49
2019-01-12T15:23:25.087Z,2.42
2019-01-12T15:26:15.097Z,2.35
2019-01-12T15:29:04.903Z,2.38
2019-01-12T15:31:54.830Z,2.43
2019-01-12T15:34:44.337Z,2.43
2019-01-12T15:37:53.154Z,2.36
2019-01-12T15:40:42.972Z,2.36
2019-01-12T15:43:33.268Z,2.28
2019-01-12T15:46:23.130Z,2.27
2019-01-12T15:49:12.626Z,2.19
2019-01-12T15:52:02.673Z,2.19
2019-01-12T15:54:52.585Z,2.24
2019-01-12T15:57:42.389Z,2.21
2019-01-12T16:00:32.521Z,2.07
2019-01-12T16:03:22.911Z,2.19
2019-01-12T16:06:13.096Z,2.22
2019-01-12T16:09:03.542Z,2.23
2019-01-12T16:11:53.268Z,2.21
2019-01-12T16:14:43.767Z,2.15
2019-01-12T16:17:33.470Z,2.19
2019-01-12T16:20:25.494Z,2.10
2019-01-12T16:23:14.187Z,2.10
2019-01-12T16:26:04.001Z,2.11
2019-01-12T16:28:53.443Z,2.16
2019-01-12T16:31:43.217Z,2.26
2019-01-12T16:34:33.489Z,2.25
2019-01-12T16:37:23.648Z,2.07
2019-01-12T16:40:16.299Z,2.18
2019-01-12T16:43:06.012Z,2.18
2019-01-12T16:45:56.359Z,2.22
2019-01-12T16:48:46.402Z,2.13
2019-01-12T16:51:36.414Z,2.25
2019-01-12T16:54:25.501Z,2.27
2019-01-12T16:57:15.294Z,2.27
2019-01-12T17:00:07.519Z,2.29
2019-01-12T17:02:59.549Z,2.33
2019-01-12T17:05:49.309Z,2.31
2019-01-12T17:08:39.623Z,2.40
2019-01-12T17:11:29.140Z,2.35
2019-01-12T17:14:18.891Z,2.33
2019-01-12T17:17:08.830Z,2.34
2019-01-12T17:19:58.539Z,2.28
2019-01-12T17:22:48.776Z,2.40
2019-01-12T17:25:38.612Z,2.47
2019-01-12T17:28:28.295Z,2.44
2019-01-12T17:31:19.202Z,2.49
2019-01-12T17:34:11.344Z,2.46
2019-01-12T17:37:01.591Z,2.50
2019-01-12T17:39:53.417Z,2.49
2019-01-12T17:42:43.855Z,2.55
2019-01-12T17:45:33.627Z,2.53
2019-01-12T17:48:24.153Z,2.58
2019-01-12T17:51:14.007Z,2.55
2019-01-12T17:57:33.783Z,2.63
2019-01-12T18:03:28.932Z,2.75
2019-01-12T18:06:18.908Z,2.67
2019-01-12T18:09:09.476Z,2.68
2019-01-12T18:12:02.525Z,2.75
2019-01-12T18:14:53.079Z,2.75
2019-01-12T18:17:43.377Z,2.75
2019-01-12T18:20:34.485Z,2.75
2019-01-12T18:23:24.562Z,2.83
2019-01-12T18:26:14.160Z,2.78
2019-01-12T18:29:04.389Z,2.78
2019-01-12T18:31:55.066Z,2.76
2019-01-12T18:34:45.474Z,2.74
2019-01-12T18:37:35.335Z,2.68
2019-01-12T18:40:25.213Z,2.56
2019-01-12T18:43:15.943Z,2.44
2019-01-12T18:46:12.057Z,2.39
2019-01-12T18:48:59.434Z,2.33
2019-01-12T18:51:49.033Z,2.27
2019-01-12T18:54:39.044Z,2.12
2019-01-12T18:57:29.301Z,2.02
2019-01-12T19:00:20.931Z,1.95
2019-01-12T19:03:11.737Z,1.91
2019-01-12T19:06:20.603Z,1.87
2019-01-12T19:09:29.843Z,1.68
2019-01-12T19:12:20.364Z,1.68
2019-01-12T19:15:32.266Z,1.59
2019-01-12T19:18:23.078Z,1.52
2019-01-12T19:21:34.879Z,1.52
2019-01-12T19:24:25.641Z,1.45
2019-01-12T19:27:15.544Z,1.48
2019-01-12T19:30:24.342Z,1.52
2019-01-12T19:33:14.426Z,1.52
2019-01-12T19:36:04.147Z,1.50
2019-01-12T19:38:53.909Z,1.51
2019-01-12T19:42:03.474Z,1.56
2019-01-12T19:45:12.775Z,1.60
2019-01-12T19:48:03.621Z,1.60
2019-01-12T19:50:54.916Z,1.50
2019-01-12T19:53:44.949Z,1.49
2019-01-12T19:56:34.506Z,1.42
2019-01-12T19:59:24.289Z,1.50
2019-01-12T20:02:33.201Z,1.45
2019-01-12T20:05:42.102Z,1.43
2019-01-12T20:08:51.805Z,1.40
2019-01-12T20:11:42.139Z,1.40
2019-01-12T20:14:31.633Z,1.34
2019-01-12T20:17:21.690Z,1.29
2019-01-12T20:20:12.720Z,1.32
2019-01-12T20:23:21.895Z,1.33
2019-01-12T20:26:11.878Z,1.33
2019-01-12T20:29:21.484Z,1.34
2019-01-12T20:32:57.245Z,1.33
2019-01-12T20:36:23.993Z,1.30
2019-01-12T20:39:41.493Z,1.22
2019-01-12T20:43:09.375Z,1.29
2019-01-12T20:46:37.472Z,1.29
2019-01-12T20:49:58.200Z,1.33
2019-01-12T20:53:26.002Z,1.28
2019-01-12T20:56:38.541Z,1.28
2019-01-12T21:00:06.950Z,1.20
2019-01-12T21:03:08.684Z,1.31
2019-01-12T21:06:32.543Z,1.31
2019-01-12T21:10:00.578Z,1.21
2019-01-12T21:13:28.372Z,1.26
2019-01-12T21:16:22.779Z,1.33
2019-01-12T21:19:12.453Z,1.33
2019-01-12T21:22:02.613Z,1.36
2019-01-12T21:24:52.785Z,1.41
2019-01-12T21:27:42.445Z,1.35
2019-01-12T21:30:51.087Z,1.32
2019-01-12T21:33:40.512Z,1.32
2019-01-12T21:36:30.347Z,1.39
2019-01-12T21:39:38.981Z,1.34
2019-01-12T21:42:28.752Z,1.40
2019-01-12T21:45:18.465Z,1.43
2019-01-12T21:48:07.974Z,1.40
2019-01-12T21:50:57.681Z,1.42
2019-01-12T21:53:47.189Z,1.46
2019-01-12T21:56:56.198Z,1.47
2019-01-12T22:03:33.326Z,1.33
2019-01-12T22:06:22.978Z,1.33
2019-01-12T22:09:31.909Z,1.38
2019-01-12T22:12:21.880Z,1.38
2019-01-12T22:18:26.172Z,1.25
2019-01-12T22:21:34.976Z,1.32
2019-01-12T23:02:37.221Z,1.44
2019-01-12T23:05:27.143Z,1.44
2019-01-12T23:08:36.129Z,1.40
2019-01-12T23:11:25.891Z,1.40
2019-01-12T23:14:15.669Z,1.40
2019-01-12T23:17:45.260Z,1.48
2019-01-12T23:20:36.413Z,1.52
2019-01-12T23:23:26.197Z,1.47
2019-01-12T23:26:34.933Z,1.45
2019-01-12T23:29:24.441Z,1.45
2019-01-12T23:32:14.581Z,1.50
2019-01-12T23:38:20.911Z,1.50
2019-01-12T23:41:30.525Z,1.57
2019-01-12T23:44:19.939Z,1.57
2019-01-12T23:47:10.241Z,1.56
2019-01-12T23:50:00.292Z,1.52
2019-01-12T23:52:49.755Z,1.62
2019-01-12T23:55:39.236Z,1.62
2019-01-12T23:58:47.878Z,1.57
